地図

経路データ

SID SEASON NUMBER BASIN SUBBASIN NAME ISO_TIME NATURE LAT LON WMO_WIND WMO_PRES WMO_AGENCY TRACK_TYPE DIST2LAND LANDFALL IFLAG USA_AGENCY USA_ATCF_ID USA_LAT USA_LON USA_RECORD USA_STATUS USA_WIND USA_PRES USA_SSHS USA_R34_NE USA_R34_SE USA_R34_SW USA_R34_NW USA_R50_NE USA_R50_SE USA_R50_SW USA_R50_NW USA_R64_NE USA_R64_SE USA_R64_SW USA_R64_NW USA_POCI USA_ROCI USA_RMW USA_EYE TOKYO_LAT TOKYO_LON TOKYO_GRADE TOKYO_WIND TOKYO_PRES TOKYO_R50_DIR TOKYO_R50_LONG TOKYO_R50_SHORT TOKYO_R30_DIR TOKYO_R30_LONG TOKYO_R30_SHORT TOKYO_LAND CMA_LAT CMA_LON CMA_CAT CMA_WIND CMA_PRES HKO_LAT HKO_LON HKO_CAT HKO_WIND HKO_PRES NEWDELHI_LAT NEWDELHI_LON NEWDELHI_GRADE NEWDELHI_WIND NEWDELHI_PRES NEWDELHI_CI NEWDELHI_DP NEWDELHI_POCI REUNION_LAT REUNION_LON REUNION_TYPE REUNION_WIND REUNION_PRES REUNION_TNUM REUNION_CI REUNION_RMW REUNION_R34_NE REUNION_R34_SE REUNION_R34_SW REUNION_R34_NW REUNION_R50_NE REUNION_R50_SE REUNION_R50_SW REUNION_R50_NW REUNION_R64_NE REUNION_R64_SE REUNION_R64_SW REUNION_R64_NW BOM_LAT BOM_LON BOM_TYPE BOM_WIND BOM_PRES BOM_TNUM BOM_CI BOM_RMW BOM_R34_NE BOM_R34_SE BOM_R34_SW BOM_R34_NW BOM_R50_NE BOM_R50_SE BOM_R50_SW BOM_R50_NW BOM_R64_NE BOM_R64_SE BOM_R64_SW BOM_R64_NW BOM_ROCI BOM_POCI BOM_EYE BOM_POS_METHOD BOM_PRES_METHOD NADI_LAT NADI_LON NADI_CAT NADI_WIND NADI_PRES WELLINGTON_LAT WELLINGTON_LON WELLINGTON_WIND WELLINGTON_PRES DS824_LAT DS824_LON DS824_STAGE DS824_WIND DS824_PRES TD9636_LAT TD9636_LON TD9636_STAGE TD9636_WIND TD9636_PRES TD9635_LAT TD9635_LON TD9635_WIND TD9635_PRES TD9635_ROCI NEUMANN_LAT NEUMANN_LON NEUMANN_CLASS NEUMANN_WIND NEUMANN_PRES MLC_LAT MLC_LON MLC_CLASS MLC_WIND MLC_PRES USA_GUST BOM_GUST BOM_GUST_PER REUNION_GUST REUNION_GUST_PER USA_SEAHGT USA_SEARAD_NE USA_SEARAD_SE USA_SEARAD_SW USA_SEARAD_NW STORM_SPEED STORM_DIR
1963047S15159 1963 22 SP EA NOT_NAMED 1963-02-15 23:00:00 NR -14.9500 159.000 1005 bom main 550 550 ______O___O___ -1 -15.0000 159.000 1005 -14.9000 159.000 7 6 0
1963047S15159 1963 22 SP EA NOT_NAMED 1963-02-16 00:00:00 TS -15.0424 159.012 main 559 559 O_____P__OP_O_ jtwc_sh SH331963 -15.0000 159.000 -1 -15.0855 158.985 1004 -15.1000 159.000 TC 20 1005 -15.0343 158.963 7 -15.0000 159.200 TC 20 1005 6 189
1963047S15159 1963 22 SP EA NOT_NAMED 1963-02-16 03:00:00 TS -15.3692 158.933 main 603 603 P_____P__PP_P_ SH331963 -15.4150 158.927 -1 -15.3411 158.932 1003 -15.3483 158.922 TC 22 1004 -15.4298 158.846 7 -15.2501 159.088 TC 22 1004 7 196
1963047S15159 1963 22 SP EA NOT_NAMED 1963-02-16 06:00:00 TS -15.6830 158.826 main 637 637 O_____P__PP_O_ jtwc_sh SH331963 -15.8000 158.800 -1 -15.5934 158.852 1002 -15.5973 158.825 TC 25 1003 -15.7987 158.710 7 -15.5000 159.000 TC 25 1003 7 202
1963047S15159 1963 22 SP EA NOT_NAMED 1963-02-16 09:00:00 TS -15.9698 158.675 main 671 671 P_____P__PP_P_ SH331963 -16.1300 158.580 -1 -15.8400 158.723 1001 -15.8477 158.691 TC 27 1002 -16.1209 158.539 7 -15.7499 158.937 TC 25 1002 6 211
1963047S15159 1963 22 SP EA NOT_NAMED 1963-02-16 11:00:00 TS -16.1443 158.538 1001 bom main 692 692 P_____O__PO_P_ SH331963 -16.3167 158.397 -1 -16.0000 158.600 1001 -16.0156 158.571 TC 29 1001 -16.3000 158.400 1 -15.9166 158.862 TC 25 1001 7 219
1963047S15159 1963 22 SP EA NOT_NAMED 1963-02-16 12:00:00 TS -16.2259 158.458 main 702 702 O_____P__OP_O_ jtwc_sh SH331963 -16.4000 158.300 -1 -16.0785 158.525 1000 -16.1000 158.500 TC 30 1001 -16.3770 158.321 1 -16.0000 158.800 TC 25 1001 7 229
1963047S15159 1963 22 SP EA NOT_NAMED 1963-02-16 15:00:00 TS -16.4527 158.173 main 745 745 P_____P__PP_P_ SH331963 -16.6150 158.007 -1 -16.3154 158.253 1000 -16.3573 158.240 TC 30 1000 -16.5707 158.052 1 -16.2426 158.480 TC 27 1000 7 233
1963047S15159 1963 22 SP EA NOT_NAMED 1963-02-16 18:00:00 TS -16.6745 157.849 main 767 767 O_____P__PP_O_ jtwc_sh SH331963 -16.8000 157.700 -1 -16.5714 157.924 1000 -16.6326 157.924 TC 30 1000 -16.7427 157.747 1 -16.5000 158.100 TC 30 1000 8 233
1963047S15159 1963 22 SP EA NOT_NAMED 1963-02-16 21:00:00 TS -16.9119 157.528 main 783 777 P_____P__PP_P_ SH331963 -16.9774 157.407 -1 -16.8684 157.557 1000 -16.9416 157.571 TC 30 1000 -16.9367 157.421 1 -16.7699 157.807 TC 30 1000 8 231
1963047S15159 1963 22 SP EA NOT_NAMED 1963-02-16 23:00:00 TS -17.0978 157.307 1000 bom main 791 791 P_____O__PO_P_ SH331963 -17.1162 157.206 -1 -17.1000 157.300 1000 -17.1741 157.325 TC 30 1000 -17.1000 157.200 1 -16.9802 157.609 TC 30 1000 9 228
1963047S15159 1963 22 SP EA NOT_NAMED 1963-02-17 00:00:00 TS -17.2046 157.189 main 795 795 O_____P__OP_O_ jtwc_sh SH331963 -17.2000 157.100 -1 -17.2309 157.153 999 -17.3000 157.200 TC 30 1000 -17.1968 157.082 1 -17.1000 157.500 TC 30 1000 10 226
1963047S15159 1963 22 SP EA NOT_NAMED 1963-02-17 03:00:00 TS -17.5745 156.796 main 815 770 P_____P__PP_P_ SH331963 -17.5050 156.750 -1 -17.6674 156.687 998 -17.7223 156.757 TC 31 999 -17.5271 156.716 1 -17.5200 157.115 TC 32 999 11 223
1963047S15159 1963 22 SP EA NOT_NAMED 1963-02-17 06:00:00 TS -18.0102 156.401 main 770 710 O_____P__PP_O_ jtwc_sh SH331963 -17.9000 156.400 -1 -18.1512 156.234 997 -18.1928 156.312 TC 32 998 -17.9172 156.362 1 -18.0000 156.700 TC 35 998 12 218
1963047S15159 1963 22 SP EA NOT_NAMED 1963-02-17 09:00:00 TS -18.4893 156.041 main 702 672 P_____P__PP_P_ SH331963 -18.3625 156.070 -1 -18.6591 155.865 996 -18.6918 155.936 TC 33 997 -18.3669 156.057 1 -18.4926 156.248 TC 35 997 12 212
1963047S15159 1963 22 SP EA NOT_NAMED 1963-02-17 11:00:00 TS -18.8316 155.852 996 bom main 672 650 P_____O__PO_P_ SH331963 -18.7141 155.880 -1 -19.0000 155.700 996 -19.0308 155.759 TC 34 996 -18.7000 155.900 1 -18.8308 155.994 TC 35 996 12 206
1963047S15159 1963 22 SP EA NOT_NAMED 1963-02-17 12:00:00 TS -19.0071 155.777 main 650 600 O_____P__OP_O_ jtwc_sh SH331963 -18.9000 155.800 -1 -19.1647 155.645 995 -19.2000 155.700 TC 35 996 -18.8778 155.817 1 -19.0000 155.900 TC 35 996 11 197
1963047S15159 1963 22 SP EA NOT_NAMED 1963-02-17 15:00:00 TS -19.5482 155.627 main 600 576 P_____P__PP_P_ SH331963 -19.4849 155.583 -1 -19.6647 155.575 992 -19.6974 155.639 TC 40 993 -19.4574 155.618 1 -19.4998 155.767 TC 40 993 11 190
1963047S15159 1963 22 SP EA NOT_NAMED 1963-02-17 17:00:00 TS -19.9206 155.600 990 bom main 576 564 P_____O__PP_P_ SH331963 -19.8947 155.508 -1 -20.0000 155.600 990 -20.0324 155.669 TC 43 990 -19.8686 155.540 1 -19.8333 155.775 TC 43 990 11 182
1963047S15159 1963 22 SP EA NOT_NAMED 1963-02-17 18:00:00 TS -20.1073 155.606 main 564 530 O_____P__OP_O_ jtwc_sh SH331963 -20.1000 155.500 -1 -20.1666 155.615 988 -20.2000 155.700 TC 45 990 -20.0775 155.522 1 -20.0000 155.800 TC 45 990 11 174
1963047S15159 1963 22 SP EA NOT_NAMED 1963-02-17 21:00:00 TS -20.6659 155.681 main 520 495 P_____P__PP_P_ SH331963 -20.7148 155.553 -1 -20.6665 155.742 983 -20.6988 155.798 TC 52 985 -20.7009 155.569 1 -20.4998 155.875 TC 52 985 11 168
1963047S15159 1963 22 SP EA NOT_NAMED 1963-02-17 23:00:00 TS -21.0314 155.819 980 bom main 495 482 P_____O__PO_P_ SH331963 -21.1113 155.694 -1 -21.0000 155.900 980 -21.0324 155.919 TC 57 981 -21.1000 155.700 2 -20.8332 156.005 TC 57 981 12 158
1963047S15159 1963 22 SP EA NOT_NAMED 1963-02-18 00:00:00 TS -21.2074 155.914 main 482 462 O_____P__OP_O_ jtwc_sh SH331963 -21.3000 155.800 -1 -21.1666 155.991 977 -21.2000 156.000 TC 60 980 -21.2777 155.794 2 -21.0000 156.100 TC 60 980 12 146
1963047S15159 1963 22 SP EA NOT_NAMED 1963-02-18 03:00:00 TS -21.7064 156.305 main 462 459 P_____P__PP_P_ SH331963 -21.8150 156.225 -1 -21.6661 156.352 971 -21.6545 156.333 TC -21.7877 156.205 2 -21.5000 156.490 TC 70 973 13 139
1963047S15159 1963 22 SP EA NOT_NAMED 1963-02-18 06:00:00 TS -22.1883 156.833 main 460 460 O_____P__PP_O_ jtwc_sh SH331963 -22.3000 156.800 -1 -22.1661 156.829 964 -22.0865 156.801 TC -22.2774 156.769 2 -22.0000 157.000 TC 80 966 14 134
1963047S15159 1963 22 SP EA NOT_NAMED 1963-02-18 08:00:00 TS -22.5121 157.218 960 bom main 472 472 P_____O__PP_P_ SH331963 -22.6332 157.199 -1 -22.5000 157.200 960 -22.3715 157.175 TC -22.6019 157.203 2 -22.3330 157.330 TC 81 963 15 132
1963047S15159 1963 22 SP EA NOT_NAMED 1963-02-18 09:00:00 TS -22.6714 157.422 main 478 478 P_____P__PP_P_ SH331963 -22.7998 157.413 -1 -22.6485 157.394 -22.5152 157.378 TC -22.7657 157.431 2 -22.4996 157.506 TC 82 963 15 129
1963047S15159 1963 22 SP EA NOT_NAMED 1963-02-18 11:00:00 TS -22.9906 157.858 main 508 508 P_____P__PO_P_ SH331963 -23.1332 157.864 -1 -22.9355 157.819 -22.8087 157.810 TC -23.1000 157.900 1 -22.8331 157.889 TC 84 960 16 128
1963047S15159 1963 22 SP EA NOT_NAMED 1963-02-18 12:00:00 TS -23.1500 158.085 main 517 517 O_____P__PP_O_ jtwc_sh SH331963 -23.3000 158.100 -1 -23.0769 158.046 -22.9599 158.038 TC -23.2634 158.125 1 -23.0000 158.100 TC 85 960 16 126
1963047S15159 1963 22 SP EA NOT_NAMED 1963-02-18 15:00:00 TS -23.6300 158.814 main 568 568 P_____P__PP_P_ SH331963 -23.7850 158.843 -1 -23.5105 158.775 -23.4404 158.755 TC -23.7588 158.841 1 -23.5001 158.828 TC 85 960 17 126
1963047S15159 1963 22 SP EA NOT_NAMED 1963-02-18 18:00:00 TS -24.1416 159.572 main 615 597 O_____P__PP_O_ jtwc_sh SH331963 -24.3000 159.600 -1 -23.9894 159.541 -23.9767 159.505 TC -24.2837 159.588 1 -24.0000 159.600 TC 85 960 17 128
1963047S15159 1963 22 SP MM NOT_NAMED 1963-02-18 21:00:00 TS -24.6907 160.312 main 597 588 P_____P__PP_P_ SH331963 -24.8474 160.331 -1 -24.5546 160.307 -24.5895 160.261 TC -24.8658 160.329 1 -24.4397 160.317 TC 85 960 18 131
1963047S15159 1963 22 SP MM NOT_NAMED 1963-02-18 23:00:00 TS -25.1118 160.784 960 bom main 588 588 P_____O__PO_P_ SH331963 -25.2662 160.787 -1 -25.0000 160.800 960 4 -25.0510 160.757 TC -25.3000 160.800 1 -24.7875 160.776 TC 85 960 18 137
1963047S15159 1963 22 SP MM NOT_NAMED 1963-02-19 00:00:00 TS -25.3507 161.002 main 598 591 O_____P__OP_O_ jtwc_sh SH331963 -25.5000 161.000 -1 -25.2650 161.012 960 -25.3000 161.000 TC 85 960 -25.5394 161.002 1 -25.0000 161.000 TC 85 960 20 145
1963047S15159 1963 22 SP MM NOT_NAMED 1963-02-19 03:00:00 TS -26.1738 161.612 main 632 632 P_____P__PP_P_ SH331963 -26.3118 161.551 -1 -26.1455 161.632 963 -26.1215 161.703 TC 81 962 -26.3201 161.574 1 -25.8322 161.658 TC 82 962 21 148
1963047S15159 1963 22 SP MM NOT_NAMED 1963-02-19 06:00:00 TS -27.0834 162.212 main 683 683 O_____P__PP_O_ jtwc_sh SH331963 -27.2000 162.100 -1 -27.1043 162.255 965 -27.0326 162.378 TC 77 965 -27.1636 162.136 1 -26.8000 162.300 TC 80 965 21 149
1963047S15159 1963 22 SP MM NOT_NAMED 1963-02-19 09:00:00 TS -28.0015 162.844 main 732 732 P_____P__PP_P_ SH331963 -28.0645 162.748 -1 -28.0765 162.918 968 -28.0025 163.040 TC 73 967 -28.0299 162.743 1 -27.7716 162.914 TC 77 967 22 148
1963047S15159 1963 22 SP MM NOT_NAMED 1963-02-19 11:00:00 TS -28.5985 163.303 970 bom main 769 769 P_____O__PO_P_ SH331963 -28.6277 163.237 -1 -28.7000 163.400 970 -28.6664 163.479 TC 71 969 -28.6000 163.200 1 -28.4030 163.356 TC 75 969 22 145
1963047S15159 1963 22 SP MM NOT_NAMED 1963-02-19 12:00:00 TS -28.8758 163.551 main 788 788 O_____P__OP_O_ jtwc_sh SH331963 -28.9000 163.500 -1 -28.9976 163.657 971 -29.0000 163.700 TC 70 970 -28.8504 163.462 1 -28.7000 163.600 TC 75 970 21 137
1963047S15159 1963 22 SP MM NOT_NAMED 1963-02-19 15:00:00 TS -29.6412 164.399 main 836 828 P_____P___P_P_ SH331963 -29.6573 164.364 -1 -29.8346 164.487 974 TC -29.5844 164.317 1 -29.4726 164.464 TC 70 973 22 134
1963047S15159 1963 22 SP MM NOT_NAMED 1963-02-19 18:00:00 TS -30.3747 165.325 main 822 707 O_____P___P_O_ jtwc_sh SH331963 -30.4000 165.300 -1 -30.6049 165.391 978 TC -30.3262 165.251 1 -30.2000 165.400 TC 65 977 22 133
1963047S15159 1963 22 SP MM NOT_NAMED 1963-02-19 21:00:00 TS -31.1362 166.255 main 699 628 P_____P___P_P_ SH331963 -31.1540 166.223 -1 -31.3304 166.346 982 TC -31.1198 166.233 1 -30.9808 166.309 TC 60 981 23 134
1963047S15159 1963 22 SP MM NOT_NAMED 1963-02-19 23:00:00 TS -31.6842 166.889 985 bom main 614 579 P_____O___O_P_ SH331963 -31.7016 166.866 -1 -31.8000 167.000 985 TC -31.7000 166.900 1 -31.5254 166.903 TC 56 983 24 136
1963047S15159 1963 22 SP MM NOT_NAMED 1963-02-20 00:00:00 TS -31.9881 167.223 main 573 435 O_________P_O_ jtwc_sh SH331963 -32.0000 167.200 -1 -32.0112 167.274 1 -31.8000 167.200 TC 55 985 27 137
1963047S15159 1963 22 SP MM NOT_NAMED 1963-02-20 03:00:00 TS -33.0011 168.352 main 422 298 P_________P___ SH331963 -32.9979 168.308 -1 -33.0073 168.440 1 TC 28 138
1963047S15159 1963 22 SP MM NOT_NAMED 1963-02-20 06:00:00 TS -34.0938 169.457 main 287 211 O_________P___ jtwc_sh SH331963 -34.1000 169.400 -1 -34.0813 169.570 1 28 141
1963047S15159 1963 22 SP MM NOT_NAMED 1963-02-20 09:00:00 TS -35.2190 170.484 main 206 202 P_________P___ SH331963 -35.2204 170.462 -1 -35.2161 170.528 1 28 146
1963047S15159 1963 22 SP MM NOT_NAMED 1963-02-20 11:00:00 TS -36.0002 171.008 main 213 209 P_________O___ SH331963 -36.0003 171.011 -1 -36.0000 171.000 2 26 155
1963047S15159 1963 22 SP MM NOT_NAMED 1963-02-20 12:00:00 TS -36.4066 171.177 main 217 217 O_________P___ jtwc_sh SH331963 -36.4000 171.200 -1 -36.4198 171.130 2 25 171
1963047S15159 1963 22 SP MM NOT_NAMED 1963-02-20 15:00:00 TS -37.6673 171.325 main 280 223 P_________P___ SH331963 -37.6339 171.348 -1 -37.7343 171.278 2 26 180
1963047S15159 1963 22 SP MM NOT_NAMED 1963-02-20 18:00:00 TS -38.9517 171.198 main 214 114 O_________P___ jtwc_sh SH331963 -38.9000 171.200 -1 -39.0551 171.193 2 26 184
1963047S15159 1963 22 SP MM NOT_NAMED 1963-02-20 21:00:00 TS -40.2441 171.086 main 114 83 P_________P___ SH331963 -40.2248 171.108 -1 -40.2827 171.044 2 25 183
1963047S15159 1963 22 SP MM NOT_NAMED 1963-02-20 23:00:00 TS -41.0269 171.054 main 83 64 P_________O___ SH331963 -41.0403 171.081 -1 -41.0000 171.000 2 22 180
1963047S15159 1963 22 SP MM NOT_NAMED 1963-02-21 00:00:00 TS -41.3673 171.066 main 55 13 O_________P___ jtwc_sh SH331963 -41.4000 171.100 -1 -41.3183 171.015 2 18 172
1963047S15159 1963 22 SP MM NOT_NAMED 1963-02-21 03:00:00 TS -42.1874 171.265 main 0 0 P_________P___ SH331963 -42.2504 171.324 -1 -42.1245 171.205 2 15 164
1963047S15159 1963 22 SP MM NOT_NAMED 1963-02-21 06:00:00 TS -42.8144 171.622 main 0 0 O_________P___ jtwc_sh SH331963 -42.9000 171.700 -1 -42.7573 171.570 2 12 152
1963047S15159 1963 22 SP MM NOT_NAMED 1963-02-21 09:00:00 NR -43.2805 172.049 main 0 0 __________P___ SH331963 -1 -43.2805 172.049 2 12 144
1963047S15159 1963 22 SP MM NOT_NAMED 1963-02-21 11:00:00 NR -43.6000 172.400 main 0 __________O___ SH331963 -1 -43.6000 172.400 2 12 142

デジタル台風データ・検索

IBTrACS Databaseについて

本データベースは、米国NOAAが公開する1842年以降の世界の熱帯低気圧のベストトラックデータアーカイブInternational Best Track Archive for Climate Stewardship (IBTrACS)を、ウェブで閲覧しやすい形式に変換したものです。

最終更新日:2021-10-08